Time;durP1;ratioP1;P1;durP2;ratioP2;P2;SDS_P1;SDS_P2;PMS_P1;PMS_P2;Temp;Humidity;BMP_temperature;BMP_pressure;BME280_temperature;BME280_humidity;BME280_pressure;Samples;Min_cycle;Max_cycle;Signal;HPM_P1;HPM_P2
2023/05/24 04:06:27;;;;;;;1.93;1.83;;;11.70;99.90;;;;;;4992522;23;20511;-71
2023/05/24 04:08:53;;;;;;;2.00;1.90;;;11.80;99.90;;;;;;4940093;29;20463;-71
2023/05/24 04:11:20;;;;;;;1.33;1.20;;;11.80;99.90;;;;;;4958250;28;20399;-72
2023/05/24 04:13:46;;;;;;;2.57;2.20;;;11.80;99.90;;;;;;4963718;28;20397;-71
2023/05/24 04:16:13;;;;;;;8.50;1.60;;;11.80;99.90;;;;;;4957288;28;20516;-70
2023/05/24 04:18:39;;;;;;;1.53;1.43;;;11.80;99.90;;;;;;4957181;29;20850;-70
2023/05/24 04:21:04;;;;;;;1.93;1.83;;;11.80;99.90;;;;;;4957391;29;20174;-70
2023/05/24 04:23:30;;;;;;;6.20;2.00;;;11.70;99.90;;;;;;4956796;29;20178;-70
2023/05/24 04:25:55;;;;;;;1.83;1.73;;;11.70;99.90;;;;;;4957101;28;20245;-69
2023/05/24 04:28:22;;;;;;;1.60;1.50;;;11.70;99.90;;;;;;4957235;29;20193;-72
2023/05/24 04:30:50;;;;;;;1.70;1.60;;;11.70;99.90;;;;;;4956880;29;20561;-71
2023/05/24 04:33:16;;;;;;;2.40;2.00;;;11.70;99.90;;;;;;4956479;29;20466;-72
2023/05/24 04:35:43;;;;;;;2.50;2.10;;;11.70;99.90;;;;;;4955454;28;20429;-70
2023/05/24 04:38:11;;;;;;;7.63;1.83;;;11.80;99.90;;;;;;4957048;29;20257;-70
2023/05/24 04:40:37;;;;;;;1.70;1.60;;;11.80;99.90;;;;;;4956897;29;20456;-70
2023/05/24 04:43:05;;;;;;;1.13;0.97;;;11.80;99.90;;;;;;4939346;29;20427;-70
2023/05/24 04:45:31;;;;;;;2.40;1.83;;;11.80;99.90;;;;;;4956686;28;20434;-73
2023/05/24 04:47:57;;;;;;;3.23;1.80;;;11.80;99.90;;;;;;4965545;29;20419;-69
2023/05/24 04:50:23;;;;;;;1.80;1.70;;;11.90;99.90;;;;;;4963999;29;20954;-73
2023/05/24 04:52:48;;;;;;;1.80;1.63;;;11.80;99.90;;;;;;4956586;29;20173;-68
2023/05/24 04:55:14;;;;;;;2.60;1.67;;;11.90;99.90;;;;;;4956196;28;20268;-71
2023/05/24 04:57:40;;;;;;;3.33;1.77;;;11.80;99.90;;;;;;4956159;29;20179;-69
2023/05/24 05:00:07;;;;;;;2.03;1.93;;;11.80;99.90;;;;;;4956620;29;20221;-73
2023/05/24 05:02:33;;;;;;;1.60;1.50;;;11.90;99.90;;;;;;4956505;29;20175;-71
2023/05/24 05:04:58;;;;;;;1.93;1.83;;;11.90;99.90;;;;;;4955685;28;20454;-72
2023/05/24 05:07:24;;;;;;;2.63;2.43;;;12.00;99.90;;;;;;4956148;29;20470;-70
2023/05/24 05:09:50;;;;;;;2.67;2.47;;;12.10;99.90;;;;;;4955986;29;20224;-68
2023/05/24 05:12:15;;;;;;;2.90;1.87;;;12.10;99.90;;;;;;4956196;29;20625;-67
2023/05/24 05:14:41;;;;;;;3.77;2.20;;;12.10;99.90;;;;;;4953457;28;20538;-69
2023/05/24 05:17:07;;;;;;;2.10;1.67;;;12.10;99.90;;;;;;4955595;29;20174;-67
2023/05/24 05:19:32;;;;;;;2.10;2.00;;;12.10;99.90;;;;;;4955755;29;20206;-68
2023/05/24 05:21:58;;;;;;;3.73;1.93;;;12.10;99.90;;;;;;4955630;28;20645;-64
2023/05/24 05:24:24;;;;;;;2.90;2.67;;;12.10;99.90;;;;;;4966531;28;20197;-64
2023/05/24 05:26:49;;;;;;;2.57;2.33;;;12.10;99.90;;;;;;4937966;29;20177;-64
2023/05/24 05:29:15;;;;;;;1.57;1.50;;;12.20;99.90;;;;;;4955471;29;20235;-63
2023/05/24 05:31:40;;;;;;;1.87;1.77;;;12.20;99.90;;;;;;4955439;29;20193;-63
2023/05/24 05:34:09;;;;;;;1.50;1.40;;;12.20;99.90;;;;;;4955308;28;20217;-64
2023/05/24 05:36:39;;;;;;;1.93;1.83;;;12.30;99.90;;;;;;4955314;29;20177;-63
2023/05/24 05:39:08;;;;;;;1.73;1.63;;;12.30;99.90;;;;;;4954462;29;20423;-63
2023/05/24 05:41:42;;;;;;;1.60;1.50;;;12.20;99.90;;;;;;4954885;29;20426;-67
2023/05/24 05:44:09;;;;;;;4.57;2.00;;;12.30;99.90;;;;;;4955126;28;20794;-66
2023/05/24 05:46:35;;;;;;;1.70;1.60;;;12.30;99.90;;;;;;4955702;29;20490;-68
2023/05/24 05:49:00;;;;;;;1.23;1.13;;;12.30;99.90;;;;;;4955441;29;20455;-67
2023/05/24 05:51:26;;;;;;;2.70;2.47;;;12.50;99.90;;;;;;4937930;28;20519;-73
2023/05/24 05:53:51;;;;;;;1.67;1.57;;;12.50;99.90;;;;;;4953727;28;20187;-69
2023/05/24 05:56:18;;;;;;;4.33;3.20;;;12.50;99.90;;;;;;4972366;28;20253;-68
2023/05/24 05:58:44;;;;;;;3.43;1.90;;;12.70;99.90;;;;;;4968116;28;20193;-68
2023/05/24 06:01:09;;;;;;;2.37;2.20;;;12.70;99.90;;;;;;4972492;28;20434;-69
2023/05/24 06:03:35;;;;;;;2.57;2.37;;;12.80;99.90;;;;;;4955480;28;20259;-69
2023/05/24 06:06:00;;;;;;;2.33;2.13;;;12.90;99.90;;;;;;4956277;28;20573;-68
2023/05/24 06:08:29;;;;;;;1.10;1.10;;;13.00;99.90;;;;;;4962209;28;20550;-68
2023/05/24 06:10:54;;;;;;;2.10;1.73;;;13.10;99.90;;;;;;4955487;29;20562;-68
2023/05/24 06:13:20;;;;;;;3.03;2.10;;;13.20;99.90;;;;;;4964737;28;20426;-68
2023/05/24 06:15:45;;;;;;;4.83;2.33;;;13.30;99.90;;;;;;4955472;28;20200;-69
2023/05/24 06:18:12;;;;;;;3.03;1.97;;;13.30;99.90;;;;;;4973637;28;20176;-68
2023/05/24 06:20:38;;;;;;;3.93;2.30;;;13.30;99.90;;;;;;4974369;28;20259;-69
2023/05/24 06:23:04;;;;;;;1.93;1.83;;;13.30;99.90;;;;;;4966927;28;20531;-68
2023/05/24 06:25:31;;;;;;;4.80;1.50;;;13.30;99.90;;;;;;4955055;28;20361;-68
2023/05/24 06:27:57;;;;;;;1.90;1.70;;;13.40;99.90;;;;;;4957408;28;20435;-68
2023/05/24 06:30:22;;;;;;;3.13;2.60;;;13.40;99.90;;;;;;4971074;28;20470;-68
2023/05/24 06:32:48;;;;;;;2.20;1.60;;;13.40;99.90;;;;;;4972441;28;20207;-67
2023/05/24 06:35:14;;;;;;;1.13;1.10;;;13.50;99.90;;;;;;4954615;28;20262;-68
2023/05/24 06:37:39;;;;;;;1.60;1.50;;;13.50;99.90;;;;;;4965169;28;20227;-67
2023/05/24 06:40:07;;;;;;;6.00;2.30;;;13.50;99.90;;;;;;4974101;28;20244;-72
2023/05/24 06:42:33;;;;;;;1.50;1.47;;;13.50;99.90;;;;;;4958764;28;20182;-70
2023/05/24 06:44:59;;;;;;;1.80;1.70;;;13.50;99.90;;;;;;4976003;28;20436;-71
2023/05/24 06:47:25;;;;;;;1.80;1.70;;;13.50;99.90;;;;;;4957780;29;20844;-69
2023/05/24 06:49:51;;;;;;;2.80;1.90;;;13.60;99.90;;;;;;4969816;28;20463;-68
2023/05/24 06:52:16;;;;;;;1.67;1.57;;;13.60;99.90;;;;;;4977800;28;20419;-70
2023/05/24 06:54:42;;;;;;;2.63;1.87;;;13.60;99.90;;;;;;4960378;28;20227;-68
2023/05/24 06:57:08;;;;;;;2.87;1.67;;;13.60;99.90;;;;;;4958361;28;20177;-70
2023/05/24 06:59:33;;;;;;;1.73;1.63;;;13.50;99.90;;;;;;4971912;28;20183;-67
2023/05/24 07:01:59;;;;;;;1.37;1.27;;;13.50;99.90;;;;;;4975793;28;20222;-69
2023/05/24 07:04:25;;;;;;;1.90;1.80;;;13.40;99.90;;;;;;4964332;28;20217;-68
2023/05/24 07:06:51;;;;;;;4.83;1.97;;;13.40;99.90;;;;;;4957917;29;20207;-70
2023/05/24 07:09:20;;;;;;;2.30;1.73;;;13.30;99.90;;;;;;4958377;28;20659;-69
2023/05/24 07:11:45;;;;;;;2.23;2.07;;;13.20;99.90;;;;;;4958855;28;20427;-66
2023/05/24 07:14:11;;;;;;;5.40;2.63;;;13.10;99.90;;;;;;4967739;28;20472;-72
2023/05/24 07:16:37;;;;;;;2.47;1.67;;;13.00;99.90;;;;;;4970314;28;20543;-68
2023/05/24 07:19:02;;;;;;;2.00;1.90;;;12.90;99.90;;;;;;4967270;28;20187;-70
2023/05/24 07:21:28;;;;;;;1.30;1.20;;;12.80;99.90;;;;;;4975131;28;20724;-70
2023/05/24 07:23:53;;;;;;;2.37;2.17;;;12.80;99.90;;;;;;4968848;28;20243;-70
2023/05/24 07:26:20;;;;;;;1.83;1.73;;;12.80;99.90;;;;;;4945558;28;20207;-68
2023/05/24 07:28:46;;;;;;;8.00;1.70;;;12.80;99.90;;;;;;4970971;28;20671;-68
2023/05/24 07:31:12;;;;;;;1.33;1.30;;;12.80;99.90;;;;;;4955909;29;20420;-67
2023/05/24 07:33:38;;;;;;;1.57;1.47;;;12.80;99.90;;;;;;4961703;28;20481;-71
2023/05/24 07:36:07;;;;;;;3.13;1.53;;;12.80;99.90;;;;;;4958238;28;20205;-68
2023/05/24 07:38:33;;;;;;;1.30;1.20;;;12.90;99.90;;;;;;4957531;28;20427;-69
2023/05/24 07:41:03;;;;;;;1.87;1.57;;;12.90;99.90;;;;;;4946289;29;20440;-67
2023/05/24 07:43:29;;;;;;;2.57;1.60;;;13.00;99.90;;;;;;4951589;28;20400;-74
2023/05/24 07:45:55;;;;;;;2.00;1.63;;;13.20;99.90;;;;;;4954442;28;20816;-67
2023/05/24 07:48:21;;;;;;;1.70;1.23;;;13.30;99.90;;;;;;4972960;28;20278;-69
2023/05/24 07:50:49;;;;;;;1.90;1.80;;;13.40;99.90;;;;;;4970553;28;20475;-68
2023/05/24 07:53:15;;;;;;;1.80;1.70;;;13.60;99.90;;;;;;4965368;28;20416;-68
2023/05/24 07:55:40;;;;;;;1.77;1.67;;;13.70;99.90;;;;;;4956970;28;20957;-66
2023/05/24 07:58:06;;;;;;;1.97;1.87;;;13.70;99.90;;;;;;4957139;29;20419;-68
2023/05/24 08:00:32;;;;;;;3.43;1.90;;;13.90;99.90;;;;;;4957165;29;20232;-68
2023/05/24 08:02:58;;;;;;;1.80;1.70;;;14.00;99.90;;;;;;4957162;29;20421;-72
2023/05/24 08:05:24;;;;;;;1.63;1.53;;;14.00;99.90;;;;;;4956073;28;20463;-73
2023/05/24 08:07:51;;;;;;;1.50;1.40;;;14.20;99.90;;;;;;4939349;29;20435;-68
2023/05/24 08:10:17;;;;;;;4.13;1.73;;;14.10;99.90;;;;;;4956411;28;20518;-67
2023/05/24 08:12:43;;;;;;;2.40;2.20;;;14.10;99.90;;;;;;4967452;28;20432;-67
2023/05/24 08:15:09;;;;;;;1.43;1.33;;;14.20;99.90;;;;;;4956627;28;20432;-67
2023/05/24 08:17:34;;;;;;;2.03;1.80;;;14.20;99.90;;;;;;4967427;28;20184;-67
2023/05/24 08:20:00;;;;;;;2.83;1.57;;;14.20;99.90;;;;;;4958239;28;20957;-66
2023/05/24 08:22:25;;;;;;;1.80;1.70;;;14.20;99.90;;;;;;4955381;29;20180;-66
2023/05/24 08:24:51;;;;;;;1.73;1.63;;;14.10;99.90;;;;;;4956553;28;20259;-67
2023/05/24 08:27:17;;;;;;;2.53;2.17;;;14.10;99.90;;;;;;4956765;29;20181;-67
2023/05/24 08:29:43;;;;;;;2.20;1.90;;;14.10;99.90;;;;;;4963210;28;20212;-66
2023/05/24 08:32:08;;;;;;;2.87;1.60;;;14.10;99.90;;;;;;4960560;28;20413;-68
2023/05/24 08:34:37;;;;;;;2.50;1.90;;;14.10;99.90;;;;;;4961380;28;20200;-66
2023/05/24 08:37:03;;;;;;;1.30;1.20;;;14.10;99.90;;;;;;4967072;28;20540;-67
2023/05/24 08:39:29;;;;;;;1.93;1.83;;;14.20;99.90;;;;;;4943709;28;20428;-67
2023/05/24 08:41:57;;;;;;;3.60;1.63;;;14.30;99.90;;;;;;4974232;28;20929;-67
2023/05/24 08:44:23;;;;;;;2.47;2.07;;;14.30;99.90;;;;;;4974739;28;20814;-66
2023/05/24 08:46:51;;;;;;;2.97;2.10;;;14.50;99.90;;;;;;4975871;28;20420;-67
2023/05/24 08:49:17;;;;;;;1.33;1.27;;;14.60;99.90;;;;;;4970091;28;20471;-68
2023/05/24 08:51:44;;;;;;;3.00;2.80;;;14.60;99.90;;;;;;4957701;28;20727;-67
2023/05/24 08:54:14;;;;;;;2.53;1.90;;;14.60;99.90;;;;;;4968221;28;20456;-66
2023/05/24 08:56:40;;;;;;;5.10;2.10;;;14.70;99.90;;;;;;4975762;28;20416;-67
2023/05/24 08:59:12;;;;;;;5.50;1.90;;;14.70;99.90;;;;;;4975560;28;20770;-69
2023/05/24 09:01:40;;;;;;;1.80;1.57;;;14.80;99.90;;;;;;4968863;28;20434;-69
2023/05/24 09:04:07;;;;;;;2.23;2.03;;;14.90;99.90;;;;;;4975084;28;20415;-68
2023/05/24 09:06:32;;;;;;;2.33;2.17;;;14.90;99.90;;;;;;4956397;28;20423;-70
2023/05/24 09:09:01;;;;;;;2.00;1.90;;;14.90;99.90;;;;;;4955980;29;20468;-69
2023/05/24 09:11:28;;;;;;;3.77;2.00;;;14.90;99.90;;;;;;4967023;28;20181;-67
2023/05/24 09:13:56;;;;;;;2.60;2.00;;;14.80;99.90;;;;;;4955116;28;20391;-67
2023/05/24 09:16:21;;;;;;;1.83;1.73;;;14.70;99.90;;;;;;4971582;28;20510;-68
2023/05/24 09:18:47;;;;;;;1.47;1.47;;;14.60;99.90;;;;;;4975150;28;20499;-68
2023/05/24 09:21:12;;;;;;;4.30;2.10;;;14.50;99.90;;;;;;4960949;28;20212;-67
2023/05/24 09:23:40;;;;;;;3.77;1.70;;;14.50;99.90;;;;;;4955565;29;20255;-69
2023/05/24 09:26:08;;;;;;;3.97;2.43;;;14.50;99.90;;;;;;4968514;28;20671;-65
2023/05/24 09:28:34;;;;;;;3.20;3.00;;;14.60;99.90;;;;;;4975020;28;20422;-67
2023/05/24 09:31:02;;;;;;;5.20;2.13;;;14.50;99.90;;;;;;4963196;28;20507;-65
2023/05/24 09:33:32;;;;;;;2.43;2.23;;;14.50;99.90;;;;;;4955292;29;20256;-67
2023/05/24 09:35:59;;;;;;;2.73;2.10;;;14.60;99.90;;;;;;4966402;28;20439;-68
2023/05/24 09:38:26;;;;;;;3.17;2.17;;;14.60;99.90;;;;;;4974794;28;20395;-67
2023/05/24 09:41:00;;;;;;;3.90;2.27;;;14.70;99.90;;;;;;4965887;28;20428;-68
2023/05/24 09:43:26;;;;;;;1.80;1.57;;;14.60;99.90;;;;;;4938351;29;20388;-69
2023/05/24 09:45:54;;;;;;;3.73;2.50;;;14.70;99.90;;;;;;4963874;28;20561;-68
2023/05/24 09:48:20;;;;;;;2.40;1.40;;;14.70;99.90;;;;;;4975118;28;20187;-68
2023/05/24 09:50:58;;;;;;;1.83;1.73;;;14.80;99.90;;;;;;4949486;29;20794;-67
2023/05/24 09:53:25;;;;;;;2.83;2.47;;;14.90;99.90;;;;;;4955156;29;20413;-68
2023/05/24 09:55:53;;;;;;;2.10;2.00;;;14.90;99.90;;;;;;4959730;28;20422;-68
2023/05/24 09:58:19;;;;;;;12.07;2.23;;;14.80;99.90;;;;;;4955211;29;20437;-68
2023/05/24 10:00:46;;;;;;;2.27;2.07;;;14.70;99.90;;;;;;4955304;28;20429;-67
2023/05/24 10:03:11;;;;;;;1.90;1.80;;;14.50;99.90;;;;;;4966795;28;20431;-67
2023/05/24 10:05:40;;;;;;;2.20;1.83;;;14.50;99.90;;;;;;4969088;28;20470;-68
2023/05/24 10:08:08;;;;;;;1.60;1.50;;;14.50;99.90;;;;;;4955339;29;20641;-67
2023/05/24 10:10:34;;;;;;;2.30;2.10;;;14.50;99.90;;;;;;4958996;28;20463;-67
2023/05/24 10:13:00;;;;;;;2.13;1.93;;;14.40;99.90;;;;;;4973640;28;20411;-66
2023/05/24 10:15:27;;;;;;;2.60;1.50;;;14.30;99.90;;;;;;4971125;28;20453;-68
2023/05/24 10:17:54;;;;;;;2.13;1.80;;;14.30;99.90;;;;;;4955123;29;20417;-68
2023/05/24 10:20:21;;;;;;;4.87;2.43;;;14.20;99.90;;;;;;4939262;28;20520;-68
2023/05/24 10:22:52;;;;;;;2.40;2.20;;;14.20;99.90;;;;;;4974445;28;20506;-70
2023/05/24 10:25:24;;;;;;;2.00;1.80;;;14.10;99.90;;;;;;4957428;28;20452;-68
2023/05/24 10:27:52;;;;;;;2.37;2.17;;;14.10;99.90;;;;;;4971418;28;20435;-70
2023/05/24 10:30:57;;;;;;;2.73;2.30;;;14.20;99.90;;;;;;4973651;28;20542;-69
2023/05/24 10:33:23;;;;;;;4.73;2.00;;;14.20;99.90;;;;;;4935523;29;20404;-68
2023/05/24 10:35:50;;;;;;;2.23;1.97;;;14.10;99.90;;;;;;4943026;28;20513;-68
2023/05/24 10:38:16;;;;;;;2.30;2.20;;;14.10;99.90;;;;;;4974161;28;20877;-68
2023/05/24 10:40:42;;;;;;;2.27;2.00;;;14.10;99.90;;;;;;4972033;28;20469;-68
2023/05/24 10:43:08;;;;;;;2.40;2.20;;;14.20;99.90;;;;;;4954878;29;20177;-68
2023/05/24 10:45:37;;;;;;;2.13;1.93;;;14.30;99.90;;;;;;4955237;28;20467;-71
2023/05/24 10:48:12;;;;;;;2.00;1.90;;;14.40;99.90;;;;;;4972503;28;20941;-69
2023/05/24 10:50:38;;;;;;;1.80;1.70;;;14.40;99.90;;;;;;4973604;28;21027;-69
2023/05/24 10:53:17;;;;;;;1.87;1.67;;;14.40;99.90;;;;;;4937391;29;20436;-68
2023/05/24 10:55:57;;;;;;;1.90;1.80;;;14.50;99.90;;;;;;4954748;28;20826;-71
2023/05/24 10:58:43;;;;;;;2.57;2.20;;;14.60;99.90;;;;;;4947824;28;20858;-69
2023/05/24 11:01:13;;;;;;;3.40;2.53;;;14.70;99.90;;;;;;4964592;28;20391;-71
2023/05/24 11:03:43;;;;;;;5.30;2.80;;;14.80;99.90;;;;;;4973734;28;20763;-70
2023/05/24 11:06:09;;;;;;;2.70;2.57;;;14.90;99.90;;;;;;4971510;28;20464;-69
2023/05/24 11:08:35;;;;;;;4.60;2.07;;;15.10;99.90;;;;;;4961282;28;20433;-70
2023/05/24 11:11:08;;;;;;;3.97;3.00;;;15.30;99.90;;;;;;4973067;28;20217;-66
2023/05/24 11:13:36;;;;;;;2.67;1.97;;;15.40;99.90;;;;;;4954400;29;20485;-71
2023/05/24 11:16:02;;;;;;;2.27;2.17;;;15.60;99.90;;;;;;4954414;28;20403;-68
2023/05/24 11:18:28;;;;;;;3.50;3.20;;;15.80;99.90;;;;;;4939641;28;20435;-71
2023/05/24 11:20:55;;;;;;;1.70;1.60;;;16.00;99.90;;;;;;4960188;28;20431;-71
2023/05/24 11:23:21;;;;;;;3.83;2.50;;;16.20;99.90;;;;;;4957212;28;20495;-70
2023/05/24 11:25:48;;;;;;;2.30;2.10;;;16.40;99.90;;;;;;4957838;28;20436;-70
2023/05/24 11:28:13;;;;;;;2.97;2.50;;;16.50;99.90;;;;;;4958807;28;20571;-70
2023/05/24 11:30:39;;;;;;;2.87;2.53;;;16.60;99.50;;;;;;4961268;28;20443;-69
2023/05/24 11:33:12;;;;;;;5.57;2.33;;;16.70;99.50;;;;;;4966095;28;20402;-69
2023/05/24 11:35:38;;;;;;;2.60;1.93;;;16.80;98.90;;;;;;4960340;28;20200;-70
2023/05/24 11:38:09;;;;;;;2.10;2.00;;;16.80;97.20;;;;;;4957789;29;20464;-68
2023/05/24 11:40:34;;;;;;;3.17;2.63;;;16.70;96.70;;;;;;4958077;29;20173;-72
2023/05/24 11:43:00;;;;;;;5.90;1.80;;;16.80;96.90;;;;;;4957600;29;20413;-72
2023/05/24 11:45:28;;;;;;;1.87;1.77;;;16.80;95.90;;;;;;4957699;28;20201;-69
2023/05/24 11:47:55;;;;;;;1.90;1.70;;;16.80;95.40;;;;;;4962674;28;20255;-69
2023/05/24 11:50:23;;;;;;;2.37;1.73;;;17.00;95.90;;;;;;4970433;28;20443;-69
2023/05/24 11:52:49;;;;;;;2.03;1.90;;;17.00;95.70;;;;;;4961402;28;20423;-68
2023/05/24 11:55:23;;;;;;;4.10;2.30;;;17.00;95.00;;;;;;4957124;28;20403;-69
2023/05/24 11:57:55;;;;;;;2.67;2.47;;;17.10;95.20;;;;;;4962650;28;20173;-70
2023/05/24 12:00:25;;;;;;;3.43;2.53;;;17.00;95.40;;;;;;4959566;28;20964;-71
2023/05/24 12:02:51;;;;;;;2.50;2.03;;;17.00;95.20;;;;;;4971854;28;20424;-67
2023/05/24 12:05:21;;;;;;;2.43;2.23;;;16.80;95.10;;;;;;4957592;28;20475;-70
2023/05/24 12:07:49;;;;;;;1.40;1.30;;;16.70;94.20;;;;;;4960641;28;20771;-71
2023/05/24 12:10:15;;;;;;;1.87;1.77;;;16.70;94.30;;;;;;4974902;28;20441;-72
2023/05/24 12:12:44;;;;;;;2.20;2.07;;;16.80;95.40;;;;;;4960487;28;20769;-71
2023/05/24 12:15:10;;;;;;;2.40;2.20;;;16.90;94.40;;;;;;4956955;28;20204;-74
2023/05/24 12:17:36;;;;;;;2.40;2.20;;;17.00;96.00;;;;;;4958258;28;20514;-69
2023/05/24 12:20:04;;;;;;;5.40;1.43;;;17.10;93.80;;;;;;4975104;28;20522;-71
2023/05/24 12:22:30;;;;;;;3.03;2.20;;;17.10;93.60;;;;;;4974758;28;20408;-68
2023/05/24 12:24:56;;;;;;;3.83;2.03;;;17.20;93.30;;;;;;4971782;28;20500;-72
2023/05/24 12:27:26;;;;;;;2.60;1.67;;;17.20;92.20;;;;;;4960809;28;20233;-70
2023/05/24 12:29:52;;;;;;;3.90;2.27;;;17.10;92.20;;;;;;4968532;28;20484;-71
2023/05/24 12:32:18;;;;;;;1.90;1.80;;;17.20;92.40;;;;;;4958905;28;20929;-73
2023/05/24 12:34:43;;;;;;;2.40;1.67;;;17.20;92.80;;;;;;4959294;28;20292;-69
2023/05/24 12:37:11;;;;;;;2.63;1.70;;;17.30;92.70;;;;;;4965018;28;20199;-69
2023/05/24 12:39:37;;;;;;;1.80;1.47;;;17.40;92.90;;;;;;4956915;29;20496;-70
2023/05/24 12:42:03;;;;;;;3.90;2.30;;;17.40;91.60;;;;;;4956179;28;20471;-72
2023/05/24 12:44:31;;;;;;;1.60;1.50;;;17.30;92.10;;;;;;4974759;28;20449;-69
2023/05/24 12:46:57;;;;;;;1.97;1.87;;;17.10;92.20;;;;;;4975876;28;20473;-70
2023/05/24 12:49:25;;;;;;;2.40;2.20;;;17.00;92.90;;;;;;4969143;28;20491;-71
2023/05/24 12:51:51;;;;;;;2.03;1.83;;;17.10;92.70;;;;;;4958430;28;20963;-73
2023/05/24 12:54:18;;;;;;;2.67;2.47;;;17.20;91.80;;;;;;4956597;28;20523;-70
2023/05/24 12:56:44;;;;;;;2.83;2.30;;;17.20;92.40;;;;;;4937868;29;20504;-71
2023/05/24 12:59:10;;;;;;;1.70;1.60;;;17.30;92.00;;;;;;4968519;28;20529;-70
2023/05/24 13:01:36;;;;;;;1.90;1.80;;;17.30;91.30;;;;;;4975031;28;20465;-72
2023/05/24 13:04:02;;;;;;;2.50;2.30;;;17.30;90.80;;;;;;4974873;28;20421;-69
2023/05/24 13:06:28;;;;;;;3.53;1.90;;;17.40;91.20;;;;;;4974932;28;20198;-69
2023/05/24 13:08:53;;;;;;;3.30;2.03;;;17.50;91.20;;;;;;4974611;28;20420;-69
2023/05/24 13:11:19;;;;;;;2.40;2.20;;;17.60;90.80;;;;;;4975165;28;20246;-70
2023/05/24 13:13:45;;;;;;;2.03;1.93;;;17.60;90.60;;;;;;4974597;28;20172;-70
2023/05/24 13:16:11;;;;;;;2.13;1.93;;;17.40;91.00;;;;;;4974646;28;20539;-67
2023/05/24 13:18:37;;;;;;;2.30;2.10;;;17.40;91.10;;;;;;4974564;28;20248;-69
2023/05/24 13:21:04;;;;;;;3.60;2.53;;;17.40;91.40;;;;;;4974686;28;20441;-67
2023/05/24 13:23:32;;;;;;;4.20;1.70;;;17.50;91.20;;;;;;4974436;28;20423;-67
2023/05/24 13:25:57;;;;;;;2.93;1.57;;;17.50;91.20;;;;;;4974508;28;20438;-68
2023/05/24 13:28:23;;;;;;;2.03;1.87;;;17.60;90.90;;;;;;4974735;28;20502;-67
2023/05/24 13:30:49;;;;;;;1.77;1.67;;;17.70;91.10;;;;;;4974595;28;20475;-69
2023/05/24 13:33:14;;;;;;;2.37;2.10;;;18.00;91.00;;;;;;4974096;28;20174;-68
2023/05/24 13:35:40;;;;;;;3.90;1.93;;;18.10;90.50;;;;;;4974572;28;20624;-66
2023/05/24 13:38:07;;;;;;;1.97;1.77;;;18.30;90.60;;;;;;4974450;28;20183;-70
2023/05/24 13:40:33;;;;;;;1.67;1.57;;;18.20;90.30;;;;;;4974433;28;20198;-69
2023/05/24 13:42:59;;;;;;;2.27;2.07;;;18.30;90.80;;;;;;4972942;28;20781;-68
2023/05/24 13:45:25;;;;;;;1.83;1.73;;;18.20;90.60;;;;;;4954690;28;20432;-68
2023/05/24 13:47:52;;;;;;;3.13;1.40;;;18.10;90.30;;;;;;4954485;29;20184;-70
2023/05/24 13:50:19;;;;;;;2.50;1.93;;;18.00;90.40;;;;;;4955081;29;20854;-67
2023/05/24 13:52:44;;;;;;;2.20;2.00;;;17.90;90.10;;;;;;4955066;29;20789;-69
2023/05/24 13:55:10;;;;;;;2.63;1.70;;;17.70;90.10;;;;;;4954640;28;20439;-70
2023/05/24 13:57:36;;;;;;;2.27;1.90;;;17.40;89.70;;;;;;4954715;29;20177;-69
2023/05/24 14:00:02;;;;;;;2.07;1.80;;;17.20;90.30;;;;;;4937900;29;20586;-69
2023/05/24 14:02:28;;;;;;;3.30;1.67;;;17.10;91.20;;;;;;4954992;29;20177;-71
2023/05/24 14:04:54;;;;;;;2.20;2.00;;;16.90;90.50;;;;;;4954392;28;20964;-69
2023/05/24 14:07:20;;;;;;;4.10;2.00;;;16.90;90.40;;;;;;4954796;29;20590;-69
2023/05/24 14:09:46;;;;;;;2.23;1.60;;;16.90;89.90;;;;;;4954976;29;20451;-68
2023/05/24 14:12:12;;;;;;;3.13;2.10;;;17.00;90.00;;;;;;4954652;29;20409;-70
2023/05/24 14:14:38;;;;;;;5.00;2.00;;;17.00;88.90;;;;;;4954603;28;20530;-70
2023/05/24 14:17:04;;;;;;;1.80;1.53;;;17.00;88.60;;;;;;4954910;29;20521;-71
2023/05/24 14:19:29;;;;;;;1.53;1.43;;;17.00;88.40;;;;;;4955119;29;20642;-70
2023/05/24 14:21:55;;;;;;;3.67;2.00;;;16.90;89.50;;;;;;4955004;29;20182;-72
2023/05/24 14:24:21;;;;;;;3.10;1.73;;;16.90;90.10;;;;;;4954481;28;20298;-69
2023/05/24 14:26:46;;;;;;;1.50;1.40;;;17.10;90.10;;;;;;4954776;29;20171;-72
2023/05/24 14:29:12;;;;;;;1.40;1.40;;;17.20;89.50;;;;;;4954746;29;20203;-69
2023/05/24 14:31:41;;;;;;;2.53;1.67;;;17.50;88.00;;;;;;4954955;29;20176;-72
2023/05/24 14:34:10;;;;;;;1.33;1.27;;;17.70;87.10;;;;;;4954357;28;20224;-69
2023/05/24 14:36:37;;;;;;;1.50;1.40;;;17.90;87.10;;;;;;4954645;29;20412;-72
2023/05/24 14:39:05;;;;;;;2.00;1.43;;;18.10;86.10;;;;;;4954814;29;20491;-68
2023/05/24 14:41:31;;;;;;;1.57;1.47;;;18.20;85.00;;;;;;4954804;29;20686;-71
2023/05/24 14:43:56;;;;;;;3.57;1.73;;;18.30;84.40;;;;;;4942716;28;20391;-69
2023/05/24 14:46:22;;;;;;;2.13;1.57;;;18.20;85.10;;;;;;4954677;29;20424;-69
2023/05/24 14:48:47;;;;;;;2.40;1.63;;;18.10;84.30;;;;;;4954797;29;20166;-69
2023/05/24 14:51:13;;;;;;;2.30;1.60;;;18.10;85.20;;;;;;4954718;29;20585;-68
2023/05/24 14:53:38;;;;;;;1.50;1.40;;;18.10;83.30;;;;;;4954784;29;20209;-70
2023/05/24 14:56:06;;;;;;;2.50;1.87;;;18.00;82.70;;;;;;4954949;28;20199;-69
2023/05/24 14:58:32;;;;;;;1.50;1.50;;;17.90;82.40;;;;;;4957234;28;20193;-69
2023/05/24 15:00:57;;;;;;;2.20;1.37;;;17.70;81.60;;;;;;4961674;29;20383;-67
2023/05/24 15:03:23;;;;;;;1.97;1.80;;;17.50;82.80;;;;;;4962118;29;20191;-69
2023/05/24 15:05:51;;;;;;;3.63;1.80;;;17.40;82.10;;;;;;4963174;28;20233;-69
2023/05/24 15:08:16;;;;;;;1.40;1.30;;;17.20;82.90;;;;;;4962095;29;20172;-69
2023/05/24 15:10:43;;;;;;;1.73;1.60;;;17.10;84.30;;;;;;4963514;29;20531;-68
2023/05/24 15:13:09;;;;;;;1.37;1.33;;;17.00;85.00;;;;;;4960061;29;20182;-71
2023/05/24 15:15:35;;;;;;;6.90;1.50;;;17.00;84.80;;;;;;4962312;28;20432;-68
2023/05/24 15:18:00;;;;;;;1.67;1.57;;;17.00;85.00;;;;;;4960570;29;20411;-70
2023/05/24 15:20:27;;;;;;;1.17;1.07;;;17.00;87.20;;;;;;4960792;28;20189;-68
2023/05/24 15:22:54;;;;;;;1.57;1.47;;;17.10;85.00;;;;;;4960701;29;20185;-67
2023/05/24 15:25:20;;;;;;;3.50;1.60;;;17.20;84.80;;;;;;4959297;28;20530;-71
2023/05/24 15:27:46;;;;;;;1.73;1.63;;;17.40;85.80;;;;;;4960778;29;20410;-70
2023/05/24 15:30:12;;;;;;;2.10;1.50;;;17.40;86.10;;;;;;4958790;29;20431;-68
2023/05/24 15:32:37;;;;;;;1.80;1.70;;;17.60;89.40;;;;;;4958191;29;20386;-67
2023/05/24 15:35:03;;;;;;;3.13;2.30;;;17.80;87.50;;;;;;4957435;28;20279;-71
2023/05/24 15:37:30;;;;;;;1.33;1.33;;;17.90;85.10;;;;;;4957869;28;20204;-70
2023/05/24 15:39:56;;;;;;;4.53;1.83;;;18.00;84.20;;;;;;4958014;29;20783;-73
2023/05/24 15:42:23;;;;;;;4.00;1.50;;;18.00;82.60;;;;;;4957970;29;20419;-71
2023/05/24 15:44:49;;;;;;;1.23;1.00;;;17.90;82.00;;;;;;4957530;28;20286;-70
2023/05/24 15:47:18;;;;;;;2.43;2.23;;;17.80;82.80;;;;;;4957816;29;20977;-70
2023/05/24 15:49:44;;;;;;;1.37;1.33;;;17.70;84.80;;;;;;4957314;29;20794;-68
2023/05/24 15:52:11;;;;;;;1.90;1.80;;;17.70;83.70;;;;;;4957469;29;20404;-70
2023/05/24 15:54:37;;;;;;;1.63;1.30;;;17.70;84.00;;;;;;4957290;28;20660;-72
2023/05/24 15:57:03;;;;;;;2.30;1.30;;;17.70;85.60;;;;;;4957739;29;20415;-73
2023/05/24 15:59:28;;;;;;;1.47;1.10;;;17.80;85.80;;;;;;4940983;28;20219;-72
2023/05/24 16:01:55;;;;;;;1.73;1.10;;;17.80;85.50;;;;;;4958311;28;20231;-66
2023/05/24 16:04:20;;;;;;;3.17;2.50;;;17.90;84.60;;;;;;4957127;28;20536;-64
2023/05/24 16:06:46;;;;;;;1.90;1.80;;;17.90;85.10;;;;;;4957416;29;20571;-66
2023/05/24 16:09:12;;;;;;;1.87;1.77;;;17.90;84.70;;;;;;4956444;28;20185;-67
2023/05/24 16:11:37;;;;;;;2.40;1.27;;;17.80;84.00;;;;;;4957192;29;20532;-69
2023/05/24 16:14:04;;;;;;;1.70;1.50;;;17.70;82.90;;;;;;4956879;28;20184;-67
2023/05/24 16:16:29;;;;;;;1.13;1.10;;;17.60;83.60;;;;;;4957344;29;20259;-71
2023/05/24 16:18:55;;;;;;;1.30;1.20;;;17.40;84.00;;;;;;4957425;29;20478;-67
2023/05/24 16:21:22;;;;;;;2.43;1.60;;;17.20;84.60;;;;;;4957503;29;20258;-67
2023/05/24 16:23:48;;;;;;;1.70;1.50;;;17.10;84.50;;;;;;4956790;29;20708;-66
2023/05/24 16:26:13;;;;;;;1.50;1.00;;;16.90;86.00;;;;;;4952893;28;20453;-67
2023/05/24 16:28:39;;;;;;;1.20;1.10;;;16.80;87.60;;;;;;4957131;29;20387;-65
2023/05/24 16:31:05;;;;;;;1.50;1.40;;;16.70;88.70;;;;;;4957088;29;20210;-69
2023/05/24 16:33:30;;;;;;;1.50;1.40;;;16.70;87.90;;;;;;4939582;29;20577;-68
2023/05/24 16:35:56;;;;;;;1.33;1.23;;;16.60;87.40;;;;;;4956578;28;20493;-68
2023/05/24 16:38:22;;;;;;;6.57;1.80;;;16.50;86.90;;;;;;4957116;29;20181;-67
2023/05/24 16:40:48;;;;;;;0.90;0.90;;;16.50;87.10;;;;;;4956838;29;20624;-67
2023/05/24 16:43:15;;;;;;;2.13;2.03;;;16.40;87.40;;;;;;4956755;29;20432;-73
2023/05/24 16:45:41;;;;;;;2.03;1.83;;;16.30;87.90;;;;;;4956715;28;20442;-69
2023/05/24 16:48:07;;;;;;;1.87;1.77;;;16.30;89.20;;;;;;4956854;29;20509;-69
2023/05/24 16:50:34;;;;;;;1.00;1.00;;;16.30;89.00;;;;;;4955279;29;20198;-69